createdAt,value
2019-03-23T00:08:07.487Z,4.30
2019-03-23T00:38:11.202Z,2.90
2019-03-23T01:08:14.939Z,3.10
2019-03-23T01:38:18.615Z,3.30
2019-03-23T02:08:22.223Z,3.20
2019-03-23T02:38:25.834Z,2.90
2019-03-23T03:08:29.449Z,2.10
2019-03-23T03:38:33.138Z,2.10
2019-03-23T04:08:36.807Z,2.00
2019-03-23T04:38:40.499Z,2.00
2019-03-23T05:08:44.155Z,2.10
2019-03-23T05:38:47.745Z,1.90
2019-03-23T06:08:55.204Z,3.80
2019-03-23T06:39:05.083Z,5.60
2019-03-23T07:09:01.822Z,8.90
2019-03-23T07:39:06.945Z,10.90
2019-03-23T08:09:20.068Z,11.80
2019-03-23T08:39:16.046Z,14.00
2019-03-23T09:09:19.613Z,16.50
2019-03-23T09:39:23.222Z,18.80
2019-03-23T10:09:26.804Z,19.70
2019-03-23T10:39:30.425Z,19.40
2019-03-23T11:09:34.075Z,19.90
2019-03-23T11:39:37.744Z,20.20
2019-03-23T12:09:41.321Z,20.60
2019-03-23T12:39:44.965Z,22.10
2019-03-23T13:09:48.564Z,23.30
2019-03-23T13:39:52.165Z,23.10
2019-03-23T14:09:55.750Z,22.70
2019-03-23T14:39:59.338Z,22.20
2019-03-23T15:10:03.097Z,21.60
2019-03-23T15:40:10.296Z,21.50
2019-03-23T16:10:15.410Z,20.50
2019-03-23T16:40:20.045Z,19.40
2019-03-23T17:10:23.606Z,17.90
2019-03-23T17:40:27.325Z,16.70
2019-03-23T18:10:31.118Z,15.30
2019-03-23T18:40:35.597Z,12.10
2019-03-23T19:10:39.285Z,11.40
2019-03-23T19:40:43.552Z,11.20
2019-03-23T20:10:47.251Z,11.10
2019-03-23T20:40:51.833Z,12.10
2019-03-23T21:10:57.382Z,12.20
2019-03-23T21:41:01.033Z,11.60
2019-03-23T22:11:04.978Z,10.60
2019-03-23T22:41:08.554Z,10.40
2019-03-23T23:11:12.145Z,10.00
2019-03-23T23:41:15.762Z,9.90
